sensor_id;sensor_type;location;lat;lon;timestamp;P1;durP1;ratioP1;P2;durP2;ratioP2
12585;SDS011;6358;50.760;0.282;2023-05-07T00:01:04;1.03;;;1.00;;
12585;SDS011;6358;50.760;0.282;2023-05-07T00:03:31;2.50;;;1.40;;
12585;SDS011;6358;50.760;0.282;2023-05-07T00:05:58;1.63;;;1.10;;
12585;SDS011;6358;50.760;0.282;2023-05-07T00:08:24;2.30;;;1.30;;
12585;SDS011;6358;50.760;0.282;2023-05-07T00:10:51;1.53;;;1.00;;
12585;SDS011;6358;50.760;0.282;2023-05-07T00:13:17;1.43;;;1.10;;
12585;SDS011;6358;50.760;0.282;2023-05-07T00:15:43;1.20;;;1.07;;
12585;SDS011;6358;50.760;0.282;2023-05-07T00:18:09;1.67;;;1.30;;
12585;SDS011;6358;50.760;0.282;2023-05-07T00:20:35;1.77;;;1.30;;
12585;SDS011;6358;50.760;0.282;2023-05-07T00:23:01;1.63;;;1.20;;
12585;SDS011;6358;50.760;0.282;2023-05-07T00:25:27;1.20;;;1.10;;
12585;SDS011;6358;50.760;0.282;2023-05-07T00:27:54;1.53;;;1.20;;
12585;SDS011;6358;50.760;0.282;2023-05-07T00:30:20;1.30;;;1.00;;
12585;SDS011;6358;50.760;0.282;2023-05-07T00:32:46;1.57;;;1.17;;
12585;SDS011;6358;50.760;0.282;2023-05-07T00:35:13;1.20;;;1.10;;
12585;SDS011;6358;50.760;0.282;2023-05-07T00:37:40;1.40;;;1.30;;
12585;SDS011;6358;50.760;0.282;2023-05-07T00:40:06;1.73;;;1.00;;
12585;SDS011;6358;50.760;0.282;2023-05-07T00:42:33;1.07;;;1.00;;
12585;SDS011;6358;50.760;0.282;2023-05-07T00:44:59;1.30;;;1.20;;
12585;SDS011;6358;50.760;0.282;2023-05-07T00:47:25;1.20;;;1.00;;
12585;SDS011;6358;50.760;0.282;2023-05-07T00:49:51;1.23;;;1.13;;
12585;SDS011;6358;50.760;0.282;2023-05-07T00:52:18;1.83;;;1.30;;
12585;SDS011;6358;50.760;0.282;2023-05-07T00:54:45;1.77;;;1.23;;
12585;SDS011;6358;50.760;0.282;2023-05-07T00:57:12;1.97;;;1.20;;
12585;SDS011;6358;50.760;0.282;2023-05-07T00:59:38;2.03;;;1.20;;
12585;SDS011;6358;50.760;0.282;2023-05-07T01:02:05;1.30;;;1.10;;
12585;SDS011;6358;50.760;0.282;2023-05-07T01:04:31;1.67;;;1.17;;
12585;SDS011;6358;50.760;0.282;2023-05-07T01:06:58;1.70;;;1.20;;
12585;SDS011;6358;50.760;0.282;2023-05-07T01:09:25;1.40;;;1.30;;
12585;SDS011;6358;50.760;0.282;2023-05-07T01:11:52;2.57;;;1.20;;
12585;SDS011;6358;50.760;0.282;2023-05-07T01:14:18;1.47;;;1.20;;
12585;SDS011;6358;50.760;0.282;2023-05-07T01:16:45;0.83;;;0.83;;
12585;SDS011;6358;50.760;0.282;2023-05-07T01:19:11;1.53;;;1.13;;
12585;SDS011;6358;50.760;0.282;2023-05-07T01:21:39;1.30;;;1.20;;
12585;SDS011;6358;50.760;0.282;2023-05-07T01:24:09;1.20;;;1.10;;
12585;SDS011;6358;50.760;0.282;2023-05-07T01:26:36;1.10;;;1.00;;
12585;SDS011;6358;50.760;0.282;2023-05-07T01:29:02;1.53;;;1.10;;
12585;SDS011;6358;50.760;0.282;2023-05-07T01:31:28;1.17;;;1.07;;
12585;SDS011;6358;50.760;0.282;2023-05-07T01:33:54;2.17;;;1.20;;
12585;SDS011;6358;50.760;0.282;2023-05-07T01:36:22;1.57;;;1.30;;
12585;SDS011;6358;50.760;0.282;2023-05-07T01:38:51;2.17;;;1.40;;
12585;SDS011;6358;50.760;0.282;2023-05-07T01:41:17;0.97;;;0.97;;
12585;SDS011;6358;50.760;0.282;2023-05-07T01:43:44;1.43;;;1.10;;
12585;SDS011;6358;50.760;0.282;2023-05-07T01:46:11;2.00;;;1.30;;
12585;SDS011;6358;50.760;0.282;2023-05-07T01:48:38;1.97;;;1.20;;
12585;SDS011;6358;50.760;0.282;2023-05-07T01:51:05;1.30;;;1.20;;
12585;SDS011;6358;50.760;0.282;2023-05-07T01:53:38;1.60;;;1.27;;
12585;SDS011;6358;50.760;0.282;2023-05-07T01:56:05;2.13;;;1.20;;
12585;SDS011;6358;50.760;0.282;2023-05-07T01:58:31;1.43;;;1.10;;
12585;SDS011;6358;50.760;0.282;2023-05-07T02:00:57;2.37;;;1.40;;
12585;SDS011;6358;50.760;0.282;2023-05-07T02:03:24;1.00;;;0.90;;
12585;SDS011;6358;50.760;0.282;2023-05-07T02:05:50;1.40;;;1.30;;
12585;SDS011;6358;50.760;0.282;2023-05-07T02:08:16;1.60;;;1.20;;
12585;SDS011;6358;50.760;0.282;2023-05-07T02:10:42;1.43;;;1.30;;
12585;SDS011;6358;50.760;0.282;2023-05-07T02:13:08;2.33;;;1.20;;
12585;SDS011;6358;50.760;0.282;2023-05-07T02:15:35;1.30;;;1.20;;
12585;SDS011;6358;50.760;0.282;2023-05-07T02:18:01;1.30;;;1.20;;
12585;SDS011;6358;50.760;0.282;2023-05-07T02:20:28;2.07;;;1.40;;
12585;SDS011;6358;50.760;0.282;2023-05-07T02:22:54;1.87;;;1.30;;
12585;SDS011;6358;50.760;0.282;2023-05-07T02:25:20;1.87;;;1.30;;
12585;SDS011;6358;50.760;0.282;2023-05-07T02:27:46;1.33;;;1.20;;
12585;SDS011;6358;50.760;0.282;2023-05-07T02:30:13;1.77;;;1.20;;
12585;SDS011;6358;50.760;0.282;2023-05-07T02:32:39;1.17;;;1.10;;
12585;SDS011;6358;50.760;0.282;2023-05-07T02:35:05;1.87;;;1.20;;
12585;SDS011;6358;50.760;0.282;2023-05-07T02:37:31;1.97;;;1.40;;
12585;SDS011;6358;50.760;0.282;2023-05-07T02:39:57;1.43;;;1.30;;
12585;SDS011;6358;50.760;0.282;2023-05-07T02:42:23;1.20;;;1.10;;
12585;SDS011;6358;50.760;0.282;2023-05-07T02:44:50;2.43;;;1.53;;
12585;SDS011;6358;50.760;0.282;2023-05-07T02:47:16;1.30;;;1.20;;
12585;SDS011;6358;50.760;0.282;2023-05-07T02:49:42;1.77;;;1.33;;
12585;SDS011;6358;50.760;0.282;2023-05-07T02:52:08;2.30;;;1.30;;
12585;SDS011;6358;50.760;0.282;2023-05-07T02:54:34;2.00;;;1.47;;
12585;SDS011;6358;50.760;0.282;2023-05-07T02:57:00;2.03;;;1.30;;
12585;SDS011;6358;50.760;0.282;2023-05-07T02:59:27;1.57;;;1.20;;
12585;SDS011;6358;50.760;0.282;2023-05-07T03:01:53;1.50;;;1.30;;
12585;SDS011;6358;50.760;0.282;2023-05-07T03:04:19;1.77;;;1.40;;
12585;SDS011;6358;50.760;0.282;2023-05-07T03:06:45;1.47;;;1.10;;
12585;SDS011;6358;50.760;0.282;2023-05-07T03:09:11;2.40;;;1.40;;
12585;SDS011;6358;50.760;0.282;2023-05-07T03:11:37;1.70;;;1.30;;
12585;SDS011;6358;50.760;0.282;2023-05-07T03:14:03;2.37;;;1.40;;
12585;SDS011;6358;50.760;0.282;2023-05-07T03:16:29;1.37;;;1.27;;
12585;SDS011;6358;50.760;0.282;2023-05-07T03:18:56;1.50;;;1.30;;
12585;SDS011;6358;50.760;0.282;2023-05-07T03:21:22;1.83;;;1.20;;
12585;SDS011;6358;50.760;0.282;2023-05-07T03:23:48;1.50;;;1.40;;
12585;SDS011;6358;50.760;0.282;2023-05-07T03:26:14;2.17;;;1.50;;
12585;SDS011;6358;50.760;0.282;2023-05-07T03:28:40;2.73;;;1.50;;
12585;SDS011;6358;50.760;0.282;2023-05-07T03:31:06;1.47;;;1.20;;
12585;SDS011;6358;50.760;0.282;2023-05-07T03:33:36;1.40;;;1.30;;
12585;SDS011;6358;50.760;0.282;2023-05-07T03:36:04;1.60;;;1.40;;
12585;SDS011;6358;50.760;0.282;2023-05-07T03:38:30;1.83;;;1.60;;
12585;SDS011;6358;50.760;0.282;2023-05-07T03:40:56;1.20;;;1.10;;
12585;SDS011;6358;50.760;0.282;2023-05-07T03:43:23;1.57;;;1.40;;
12585;SDS011;6358;50.760;0.282;2023-05-07T03:45:49;1.80;;;1.53;;
12585;SDS011;6358;50.760;0.282;2023-05-07T03:48:15;1.53;;;1.40;;
12585;SDS011;6358;50.760;0.282;2023-05-07T03:50:41;2.73;;;1.50;;
12585;SDS011;6358;50.760;0.282;2023-05-07T03:53:07;1.90;;;1.40;;
12585;SDS011;6358;50.760;0.282;2023-05-07T03:55:33;1.30;;;1.20;;
12585;SDS011;6358;50.760;0.282;2023-05-07T03:58:00;2.40;;;1.40;;
12585;SDS011;6358;50.760;0.282;2023-05-07T04:00:26;1.43;;;1.30;;
12585;SDS011;6358;50.760;0.282;2023-05-07T04:02:52;1.53;;;1.43;;
12585;SDS011;6358;50.760;0.282;2023-05-07T04:05:18;1.83;;;1.50;;
12585;SDS011;6358;50.760;0.282;2023-05-07T04:07:44;1.70;;;1.20;;
12585;SDS011;6358;50.760;0.282;2023-05-07T04:10:11;2.20;;;1.60;;
12585;SDS011;6358;50.760;0.282;2023-05-07T04:12:38;2.60;;;1.60;;
12585;SDS011;6358;50.760;0.282;2023-05-07T04:15:04;3.40;;;1.60;;
12585;SDS011;6358;50.760;0.282;2023-05-07T04:17:30;1.70;;;1.43;;
12585;SDS011;6358;50.760;0.282;2023-05-07T04:19:56;2.27;;;1.37;;
12585;SDS011;6358;50.760;0.282;2023-05-07T04:22:22;2.50;;;1.40;;
12585;SDS011;6358;50.760;0.282;2023-05-07T04:24:48;1.93;;;1.23;;
12585;SDS011;6358;50.760;0.282;2023-05-07T04:27:15;1.83;;;1.57;;
12585;SDS011;6358;50.760;0.282;2023-05-07T04:29:41;1.87;;;1.27;;
12585;SDS011;6358;50.760;0.282;2023-05-07T04:32:08;1.67;;;1.30;;
12585;SDS011;6358;50.760;0.282;2023-05-07T04:34:34;1.40;;;1.30;;
12585;SDS011;6358;50.760;0.282;2023-05-07T04:37:00;1.30;;;1.20;;
12585;SDS011;6358;50.760;0.282;2023-05-07T04:39:26;1.87;;;1.50;;
12585;SDS011;6358;50.760;0.282;2023-05-07T04:41:52;2.23;;;1.50;;
12585;SDS011;6358;50.760;0.282;2023-05-07T04:44:18;2.03;;;1.23;;
12585;SDS011;6358;50.760;0.282;2023-05-07T04:46:44;1.40;;;1.30;;
12585;SDS011;6358;50.760;0.282;2023-05-07T04:49:10;1.50;;;1.40;;
12585;SDS011;6358;50.760;0.282;2023-05-07T04:51:36;1.30;;;1.20;;
12585;SDS011;6358;50.760;0.282;2023-05-07T04:54:03;1.37;;;1.23;;
12585;SDS011;6358;50.760;0.282;2023-05-07T04:56:29;1.77;;;1.30;;
12585;SDS011;6358;50.760;0.282;2023-05-07T04:58:55;1.50;;;1.40;;
12585;SDS011;6358;50.760;0.282;2023-05-07T05:01:21;1.30;;;1.20;;
12585;SDS011;6358;50.760;0.282;2023-05-07T05:03:47;1.87;;;1.30;;
12585;SDS011;6358;50.760;0.282;2023-05-07T05:06:13;1.40;;;1.30;;
12585;SDS011;6358;50.760;0.282;2023-05-07T05:08:40;1.30;;;1.20;;
12585;SDS011;6358;50.760;0.282;2023-05-07T05:11:06;1.37;;;1.23;;
12585;SDS011;6358;50.760;0.282;2023-05-07T05:13:32;2.10;;;1.30;;
12585;SDS011;6358;50.760;0.282;2023-05-07T05:15:58;2.30;;;1.17;;
12585;SDS011;6358;50.760;0.282;2023-05-07T05:18:24;1.43;;;1.30;;
12585;SDS011;6358;50.760;0.282;2023-05-07T05:20:51;1.53;;;1.20;;
12585;SDS011;6358;50.760;0.282;2023-05-07T05:23:17;1.70;;;1.43;;
12585;SDS011;6358;50.760;0.282;2023-05-07T05:25:43;1.50;;;1.40;;
12585;SDS011;6358;50.760;0.282;2023-05-07T05:28:09;1.43;;;1.30;;
12585;SDS011;6358;50.760;0.282;2023-05-07T05:30:35;1.50;;;1.20;;
12585;SDS011;6358;50.760;0.282;2023-05-07T05:33:01;1.33;;;1.07;;
12585;SDS011;6358;50.760;0.282;2023-05-07T05:35:27;1.40;;;1.30;;
12585;SDS011;6358;50.760;0.282;2023-05-07T05:37:53;1.33;;;1.23;;
12585;SDS011;6358;50.760;0.282;2023-05-07T05:40:19;1.50;;;1.40;;
12585;SDS011;6358;50.760;0.282;2023-05-07T05:42:45;2.67;;;1.30;;
12585;SDS011;6358;50.760;0.282;2023-05-07T05:45:11;1.50;;;1.40;;
12585;SDS011;6358;50.760;0.282;2023-05-07T05:47:38;1.13;;;1.13;;
12585;SDS011;6358;50.760;0.282;2023-05-07T05:50:05;1.30;;;1.07;;
12585;SDS011;6358;50.760;0.282;2023-05-07T05:52:31;3.17;;;1.33;;
12585;SDS011;6358;50.760;0.282;2023-05-07T05:54:57;1.47;;;1.37;;
12585;SDS011;6358;50.760;0.282;2023-05-07T05:57:23;1.50;;;1.20;;
12585;SDS011;6358;50.760;0.282;2023-05-07T05:59:49;1.60;;;1.30;;
12585;SDS011;6358;50.760;0.282;2023-05-07T06:02:16;1.30;;;1.20;;
12585;SDS011;6358;50.760;0.282;2023-05-07T06:04:42;1.47;;;1.20;;
12585;SDS011;6358;50.760;0.282;2023-05-07T06:07:08;1.60;;;1.10;;
12585;SDS011;6358;50.760;0.282;2023-05-07T06:09:34;1.93;;;1.30;;
12585;SDS011;6358;50.760;0.282;2023-05-07T06:12:00;3.73;;;1.30;;
12585;SDS011;6358;50.760;0.282;2023-05-07T06:14:26;1.67;;;1.37;;
12585;SDS011;6358;50.760;0.282;2023-05-07T06:16:52;2.07;;;1.13;;
12585;SDS011;6358;50.760;0.282;2023-05-07T06:19:18;2.07;;;1.30;;
12585;SDS011;6358;50.760;0.282;2023-05-07T06:21:48;1.40;;;1.30;;
12585;SDS011;6358;50.760;0.282;2023-05-07T06:24:14;1.60;;;1.20;;
12585;SDS011;6358;50.760;0.282;2023-05-07T06:26:40;1.70;;;0.97;;
12585;SDS011;6358;50.760;0.282;2023-05-07T06:29:06;1.40;;;1.20;;
12585;SDS011;6358;50.760;0.282;2023-05-07T06:31:32;1.23;;;1.10;;
12585;SDS011;6358;50.760;0.282;2023-05-07T06:33:59;1.43;;;1.30;;
12585;SDS011;6358;50.760;0.282;2023-05-07T06:36:27;2.40;;;1.20;;
12585;SDS011;6358;50.760;0.282;2023-05-07T06:38:53;1.37;;;1.27;;
12585;SDS011;6358;50.760;0.282;2023-05-07T06:41:19;1.10;;;1.00;;
12585;SDS011;6358;50.760;0.282;2023-05-07T06:43:46;1.23;;;1.13;;
12585;SDS011;6358;50.760;0.282;2023-05-07T06:46:12;1.77;;;1.13;;
12585;SDS011;6358;50.760;0.282;2023-05-07T06:48:38;1.10;;;1.00;;
12585;SDS011;6358;50.760;0.282;2023-05-07T06:51:04;1.20;;;1.10;;
12585;SDS011;6358;50.760;0.282;2023-05-07T06:53:31;1.13;;;0.93;;
12585;SDS011;6358;50.760;0.282;2023-05-07T06:55:57;1.10;;;1.00;;
12585;SDS011;6358;50.760;0.282;2023-05-07T06:58:23;1.67;;;1.17;;
12585;SDS011;6358;50.760;0.282;2023-05-07T07:00:49;1.20;;;1.10;;
12585;SDS011;6358;50.760;0.282;2023-05-07T07:03:15;1.53;;;1.10;;
12585;SDS011;6358;50.760;0.282;2023-05-07T07:05:41;1.53;;;1.20;;
12585;SDS011;6358;50.760;0.282;2023-05-07T07:08:07;1.20;;;1.10;;
12585;SDS011;6358;50.760;0.282;2023-05-07T07:10:33;2.63;;;1.20;;
12585;SDS011;6358;50.760;0.282;2023-05-07T07:12:59;0.93;;;0.93;;
12585;SDS011;6358;50.760;0.282;2023-05-07T07:15:26;0.90;;;0.90;;
12585;SDS011;6358;50.760;0.282;2023-05-07T07:17:52;1.27;;;1.00;;
12585;SDS011;6358;50.760;0.282;2023-05-07T07:20:18;1.03;;;1.00;;
12585;SDS011;6358;50.760;0.282;2023-05-07T07:22:44;1.03;;;1.00;;
12585;SDS011;6358;50.760;0.282;2023-05-07T07:25:10;0.90;;;0.90;;
12585;SDS011;6358;50.760;0.282;2023-05-07T07:27:37;0.90;;;0.90;;
12585;SDS011;6358;50.760;0.282;2023-05-07T07:30:05;1.43;;;1.20;;
12585;SDS011;6358;50.760;0.282;2023-05-07T07:32:31;1.10;;;0.80;;
12585;SDS011;6358;50.760;0.282;2023-05-07T07:34:58;1.17;;;1.07;;
12585;SDS011;6358;50.760;0.282;2023-05-07T07:37:24;0.97;;;0.77;;
12585;SDS011;6358;50.760;0.282;2023-05-07T07:39:50;1.37;;;1.00;;
12585;SDS011;6358;50.760;0.282;2023-05-07T07:42:16;1.03;;;0.90;;
12585;SDS011;6358;50.760;0.282;2023-05-07T07:44:43;1.13;;;0.97;;
12585;SDS011;6358;50.760;0.282;2023-05-07T07:47:09;1.13;;;1.00;;
12585;SDS011;6358;50.760;0.282;2023-05-07T07:49:35;1.10;;;1.00;;
12585;SDS011;6358;50.760;0.282;2023-05-07T07:52:02;1.43;;;0.90;;
12585;SDS011;6358;50.760;0.282;2023-05-07T07:54:28;1.37;;;1.10;;
12585;SDS011;6358;50.760;0.282;2023-05-07T07:56:54;0.93;;;0.87;;
12585;SDS011;6358;50.760;0.282;2023-05-07T07:59:20;1.00;;;1.00;;
12585;SDS011;6358;50.760;0.282;2023-05-07T08:01:46;0.90;;;0.90;;
12585;SDS011;6358;50.760;0.282;2023-05-07T08:04:15;0.73;;;0.73;;
12585;SDS011;6358;50.760;0.282;2023-05-07T08:06:41;1.30;;;1.20;;
12585;SDS011;6358;50.760;0.282;2023-05-07T08:09:07;0.90;;;0.90;;
12585;SDS011;6358;50.760;0.282;2023-05-07T08:11:33;0.83;;;0.83;;
12585;SDS011;6358;50.760;0.282;2023-05-07T08:13:59;1.13;;;1.07;;
12585;SDS011;6358;50.760;0.282;2023-05-07T08:16:26;0.80;;;0.80;;
12585;SDS011;6358;50.760;0.282;2023-05-07T08:18:53;0.80;;;0.80;;
12585;SDS011;6358;50.760;0.282;2023-05-07T08:21:19;0.90;;;0.90;;
12585;SDS011;6358;50.760;0.282;2023-05-07T08:23:45;0.73;;;0.73;;
12585;SDS011;6358;50.760;0.282;2023-05-07T08:26:11;0.90;;;0.90;;
12585;SDS011;6358;50.760;0.282;2023-05-07T08:28:37;0.90;;;0.90;;
12585;SDS011;6358;50.760;0.282;2023-05-07T08:31:04;0.87;;;0.87;;
12585;SDS011;6358;50.760;0.282;2023-05-07T08:33:30;0.83;;;0.83;;
12585;SDS011;6358;50.760;0.282;2023-05-07T08:35:56;0.90;;;0.90;;
12585;SDS011;6358;50.760;0.282;2023-05-07T08:38:23;0.83;;;0.83;;
12585;SDS011;6358;50.760;0.282;2023-05-07T08:40:49;1.13;;;0.83;;
12585;SDS011;6358;50.760;0.282;2023-05-07T08:43:15;1.00;;;0.93;;
12585;SDS011;6358;50.760;0.282;2023-05-07T08:45:42;1.30;;;0.90;;
12585;SDS011;6358;50.760;0.282;2023-05-07T08:48:16;0.83;;;0.80;;
12585;SDS011;6358;50.760;0.282;2023-05-07T08:50:42;0.87;;;0.87;;
12585;SDS011;6358;50.760;0.282;2023-05-07T08:53:09;0.90;;;0.90;;
12585;SDS011;6358;50.760;0.282;2023-05-07T08:55:35;1.20;;;1.10;;
12585;SDS011;6358;50.760;0.282;2023-05-07T08:58:01;0.80;;;0.80;;
12585;SDS011;6358;50.760;0.282;2023-05-07T09:00:27;1.10;;;1.00;;
12585;SDS011;6358;50.760;0.282;2023-05-07T09:02:53;1.43;;;1.10;;
12585;SDS011;6358;50.760;0.282;2023-05-07T09:05:19;1.23;;;1.03;;
12585;SDS011;6358;50.760;0.282;2023-05-07T09:07:46;0.83;;;0.83;;
12585;SDS011;6358;50.760;0.282;2023-05-07T09:10:12;0.90;;;0.90;;
12585;SDS011;6358;50.760;0.282;2023-05-07T09:12:39;0.80;;;0.80;;
12585;SDS011;6358;50.760;0.282;2023-05-07T09:15:06;0.80;;;0.80;;
12585;SDS011;6358;50.760;0.282;2023-05-07T09:17:32;0.77;;;0.77;;
12585;SDS011;6358;50.760;0.282;2023-05-07T09:20:04;1.20;;;1.10;;
12585;SDS011;6358;50.760;0.282;2023-05-07T09:22:31;0.70;;;0.70;;
12585;SDS011;6358;50.760;0.282;2023-05-07T09:24:58;0.90;;;0.90;;
12585;SDS011;6358;50.760;0.282;2023-05-07T09:27:24;1.10;;;1.00;;
12585;SDS011;6358;50.760;0.282;2023-05-07T09:29:51;0.80;;;0.80;;
12585;SDS011;6358;50.760;0.282;2023-05-07T09:32:17;1.40;;;1.10;;
12585;SDS011;6358;50.760;0.282;2023-05-07T09:34:43;1.00;;;1.00;;
12585;SDS011;6358;50.760;0.282;2023-05-07T09:37:10;1.77;;;1.07;;
12585;SDS011;6358;50.760;0.282;2023-05-07T09:39:41;1.00;;;1.00;;
12585;SDS011;6358;50.760;0.282;2023-05-07T09:42:07;1.10;;;1.00;;
12585;SDS011;6358;50.760;0.282;2023-05-07T09:44:34;1.00;;;1.00;;
12585;SDS011;6358;50.760;0.282;2023-05-07T09:47:01;1.10;;;1.10;;
12585;SDS011;6358;50.760;0.282;2023-05-07T09:49:29;1.50;;;1.20;;
12585;SDS011;6358;50.760;0.282;2023-05-07T09:51:56;1.27;;;1.17;;
12585;SDS011;6358;50.760;0.282;2023-05-07T09:54:22;1.07;;;1.07;;
12585;SDS011;6358;50.760;0.282;2023-05-07T09:56:48;1.20;;;1.10;;
12585;SDS011;6358;50.760;0.282;2023-05-07T09:59:15;1.27;;;1.17;;
12585;SDS011;6358;50.760;0.282;2023-05-07T10:01:42;1.20;;;1.10;;
12585;SDS011;6358;50.760;0.282;2023-05-07T10:04:09;1.10;;;1.10;;
12585;SDS011;6358;50.760;0.282;2023-05-07T10:06:35;1.70;;;1.03;;
12585;SDS011;6358;50.760;0.282;2023-05-07T10:09:03;1.50;;;1.10;;
12585;SDS011;6358;50.760;0.282;2023-05-07T10:11:33;1.30;;;1.20;;
12585;SDS011;6358;50.760;0.282;2023-05-07T10:14:00;1.03;;;1.03;;
12585;SDS011;6358;50.760;0.282;2023-05-07T10:16:27;1.30;;;1.20;;
12585;SDS011;6358;50.760;0.282;2023-05-07T10:18:56;1.80;;;1.27;;
12585;SDS011;6358;50.760;0.282;2023-05-07T10:21:23;1.10;;;1.10;;
12585;SDS011;6358;50.760;0.282;2023-05-07T10:23:59;1.20;;;1.10;;
12585;SDS011;6358;50.760;0.282;2023-05-07T10:26:27;2.07;;;1.30;;
12585;SDS011;6358;50.760;0.282;2023-05-07T10:28:57;1.37;;;1.23;;
12585;SDS011;6358;50.760;0.282;2023-05-07T10:31:37;1.20;;;1.20;;
12585;SDS011;6358;50.760;0.282;2023-05-07T10:34:12;1.00;;;1.00;;
12585;SDS011;6358;50.760;0.282;2023-05-07T10:36:39;1.40;;;1.30;;
12585;SDS011;6358;50.760;0.282;2023-05-07T10:39:07;1.47;;;1.20;;
12585;SDS011;6358;50.760;0.282;2023-05-07T10:41:33;1.10;;;1.10;;
12585;SDS011;6358;50.760;0.282;2023-05-07T10:43:59;1.57;;;1.30;;
12585;SDS011;6358;50.760;0.282;2023-05-07T10:46:27;2.40;;;1.50;;
12585;SDS011;6358;50.760;0.282;2023-05-07T10:51:30;1.20;;;1.20;;
12585;SDS011;6358;50.760;0.282;2023-05-07T10:56:37;1.30;;;1.20;;
12585;SDS011;6358;50.760;0.282;2023-05-07T11:01:58;1.30;;;1.23;;
12585;SDS011;6358;50.760;0.282;2023-05-07T11:04:25;1.23;;;1.23;;
12585;SDS011;6358;50.760;0.282;2023-05-07T11:17:29;1.40;;;1.30;;
12585;SDS011;6358;50.760;0.282;2023-05-07T11:19:57;1.30;;;1.30;;
12585;SDS011;6358;50.760;0.282;2023-05-07T11:24:59;1.50;;;1.40;;
12585;SDS011;6358;50.760;0.282;2023-05-07T11:27:26;1.57;;;1.47;;
12585;SDS011;6358;50.760;0.282;2023-05-07T11:29:52;1.50;;;1.40;;
12585;SDS011;6358;50.760;0.282;2023-05-07T11:32:27;2.10;;;1.60;;
12585;SDS011;6358;50.760;0.282;2023-05-07T11:34:56;1.60;;;1.50;;
12585;SDS011;6358;50.760;0.282;2023-05-07T11:37:23;1.40;;;1.30;;
12585;SDS011;6358;50.760;0.282;2023-05-07T11:39:50;1.53;;;1.43;;
12585;SDS011;6358;50.760;0.282;2023-05-07T11:42:29;2.77;;;1.50;;
12585;SDS011;6358;50.760;0.282;2023-05-07T11:44:56;1.57;;;1.47;;
12585;SDS011;6358;50.760;0.282;2023-05-07T11:47:22;1.97;;;1.70;;
12585;SDS011;6358;50.760;0.282;2023-05-07T11:49:49;1.97;;;1.50;;
12585;SDS011;6358;50.760;0.282;2023-05-07T11:52:16;2.03;;;1.53;;
12585;SDS011;6358;50.760;0.282;2023-05-07T11:54:48;1.80;;;1.70;;
12585;SDS011;6358;50.760;0.282;2023-05-07T11:57:14;1.80;;;1.70;;
12585;SDS011;6358;50.760;0.282;2023-05-07T11:59:41;1.87;;;1.67;;
12585;SDS011;6358;50.760;0.282;2023-05-07T12:02:09;1.80;;;1.70;;
12585;SDS011;6358;50.760;0.282;2023-05-07T12:04:35;1.57;;;1.47;;
12585;SDS011;6358;50.760;0.282;2023-05-07T12:07:01;1.60;;;1.50;;
12585;SDS011;6358;50.760;0.282;2023-05-07T12:09:27;1.60;;;1.50;;
12585;SDS011;6358;50.760;0.282;2023-05-07T12:11:53;1.50;;;1.40;;
12585;SDS011;6358;50.760;0.282;2023-05-07T12:14:21;2.20;;;1.73;;
12585;SDS011;6358;50.760;0.282;2023-05-07T12:16:47;1.60;;;1.50;;
12585;SDS011;6358;50.760;0.282;2023-05-07T12:19:13;1.80;;;1.70;;
12585;SDS011;6358;50.760;0.282;2023-05-07T12:21:40;1.70;;;1.60;;
12585;SDS011;6358;50.760;0.282;2023-05-07T12:24:07;1.70;;;1.60;;
12585;SDS011;6358;50.760;0.282;2023-05-07T12:26:37;1.70;;;1.60;;
12585;SDS011;6358;50.760;0.282;2023-05-07T12:29:03;1.73;;;1.63;;
12585;SDS011;6358;50.760;0.282;2023-05-07T12:31:29;1.80;;;1.70;;
12585;SDS011;6358;50.760;0.282;2023-05-07T12:33:56;1.60;;;1.50;;
12585;SDS011;6358;50.760;0.282;2023-05-07T12:36:22;1.70;;;1.60;;
12585;SDS011;6358;50.760;0.282;2023-05-07T12:38:51;1.73;;;1.63;;
12585;SDS011;6358;50.760;0.282;2023-05-07T12:41:17;1.50;;;1.40;;
12585;SDS011;6358;50.760;0.282;2023-05-07T12:43:43;1.70;;;1.60;;
12585;SDS011;6358;50.760;0.282;2023-05-07T12:46:10;1.80;;;1.70;;
12585;SDS011;6358;50.760;0.282;2023-05-07T12:48:45;2.03;;;1.50;;
12585;SDS011;6358;50.760;0.282;2023-05-07T12:51:11;1.70;;;1.60;;
12585;SDS011;6358;50.760;0.282;2023-05-07T12:53:40;1.90;;;1.80;;
12585;SDS011;6358;50.760;0.282;2023-05-07T12:56:09;1.80;;;1.70;;
12585;SDS011;6358;50.760;0.282;2023-05-07T12:58:36;1.80;;;1.70;;
12585;SDS011;6358;50.760;0.282;2023-05-07T13:01:06;1.80;;;1.70;;
12585;SDS011;6358;50.760;0.282;2023-05-07T13:03:33;1.70;;;1.60;;
12585;SDS011;6358;50.760;0.282;2023-05-07T13:06:02;1.83;;;1.73;;
12585;SDS011;6358;50.760;0.282;2023-05-07T13:08:30;1.70;;;1.60;;
12585;SDS011;6358;50.760;0.282;2023-05-07T13:10:57;2.00;;;1.80;;
12585;SDS011;6358;50.760;0.282;2023-05-07T13:13:23;1.70;;;1.60;;
12585;SDS011;6358;50.760;0.282;2023-05-07T13:15:49;1.80;;;1.70;;
12585;SDS011;6358;50.760;0.282;2023-05-07T13:18:15;1.53;;;1.43;;
12585;SDS011;6358;50.760;0.282;2023-05-07T13:20:41;1.70;;;1.60;;
12585;SDS011;6358;50.760;0.282;2023-05-07T13:23:08;1.80;;;1.70;;
12585;SDS011;6358;50.760;0.282;2023-05-07T13:25:34;1.93;;;1.77;;
12585;SDS011;6358;50.760;0.282;2023-05-07T13:28:00;1.73;;;1.63;;
12585;SDS011;6358;50.760;0.282;2023-05-07T13:30:26;1.83;;;1.73;;
12585;SDS011;6358;50.760;0.282;2023-05-07T13:32:53;1.80;;;1.70;;
12585;SDS011;6358;50.760;0.282;2023-05-07T13:35:21;1.57;;;1.47;;
12585;SDS011;6358;50.760;0.282;2023-05-07T13:37:47;1.80;;;1.70;;
12585;SDS011;6358;50.760;0.282;2023-05-07T13:40:14;1.80;;;1.70;;
12585;SDS011;6358;50.760;0.282;2023-05-07T13:42:40;1.70;;;1.60;;
12585;SDS011;6358;50.760;0.282;2023-05-07T13:45:07;2.07;;;1.50;;
12585;SDS011;6358;50.760;0.282;2023-05-07T13:47:33;1.67;;;1.57;;
12585;SDS011;6358;50.760;0.282;2023-05-07T13:49:59;1.80;;;1.70;;
12585;SDS011;6358;50.760;0.282;2023-05-07T13:52:25;1.80;;;1.70;;
12585;SDS011;6358;50.760;0.282;2023-05-07T13:54:51;1.63;;;1.50;;
12585;SDS011;6358;50.760;0.282;2023-05-07T13:57:18;1.60;;;1.50;;
12585;SDS011;6358;50.760;0.282;2023-05-07T13:59:45;2.03;;;1.87;;
12585;SDS011;6358;50.760;0.282;2023-05-07T14:02:11;1.60;;;1.50;;
12585;SDS011;6358;50.760;0.282;2023-05-07T14:04:37;1.93;;;1.83;;
12585;SDS011;6358;50.760;0.282;2023-05-07T14:07:03;1.70;;;1.60;;
12585;SDS011;6358;50.760;0.282;2023-05-07T14:09:30;1.93;;;1.83;;
12585;SDS011;6358;50.760;0.282;2023-05-07T14:11:56;1.60;;;1.50;;
12585;SDS011;6358;50.760;0.282;2023-05-07T14:14:22;1.80;;;1.70;;
12585;SDS011;6358;50.760;0.282;2023-05-07T14:16:48;1.93;;;1.83;;
12585;SDS011;6358;50.760;0.282;2023-05-07T14:19:14;1.80;;;1.70;;
12585;SDS011;6358;50.760;0.282;2023-05-07T14:21:40;1.80;;;1.70;;
12585;SDS011;6358;50.760;0.282;2023-05-07T14:24:07;2.00;;;1.80;;
12585;SDS011;6358;50.760;0.282;2023-05-07T14:26:34;2.00;;;1.90;;
12585;SDS011;6358;50.760;0.282;2023-05-07T14:29:00;1.80;;;1.70;;
12585;SDS011;6358;50.760;0.282;2023-05-07T14:31:26;1.97;;;1.87;;
12585;SDS011;6358;50.760;0.282;2023-05-07T14:33:52;2.00;;;1.90;;
12585;SDS011;6358;50.760;0.282;2023-05-07T14:36:18;1.83;;;1.73;;
12585;SDS011;6358;50.760;0.282;2023-05-07T14:38:46;2.00;;;1.80;;
12585;SDS011;6358;50.760;0.282;2023-05-07T14:41:12;2.03;;;1.93;;
12585;SDS011;6358;50.760;0.282;2023-05-07T14:43:38;1.97;;;1.87;;
12585;SDS011;6358;50.760;0.282;2023-05-07T14:46:04;2.07;;;1.90;;
12585;SDS011;6358;50.760;0.282;2023-05-07T14:48:38;1.83;;;1.73;;
12585;SDS011;6358;50.760;0.282;2023-05-07T14:51:04;2.00;;;1.87;;
12585;SDS011;6358;50.760;0.282;2023-05-07T14:53:32;2.37;;;2.17;;
12585;SDS011;6358;50.760;0.282;2023-05-07T14:55:58;2.20;;;2.00;;
12585;SDS011;6358;50.760;0.282;2023-05-07T14:58:25;2.03;;;1.93;;
12585;SDS011;6358;50.760;0.282;2023-05-07T15:00:51;1.97;;;1.87;;
12585;SDS011;6358;50.760;0.282;2023-05-07T15:03:17;2.00;;;1.90;;
12585;SDS011;6358;50.760;0.282;2023-05-07T15:05:43;2.20;;;2.00;;
12585;SDS011;6358;50.760;0.282;2023-05-07T15:08:09;2.17;;;1.97;;
12585;SDS011;6358;50.760;0.282;2023-05-07T15:10:36;1.90;;;1.80;;
12585;SDS011;6358;50.760;0.282;2023-05-07T15:13:06;2.20;;;2.00;;
12585;SDS011;6358;50.760;0.282;2023-05-07T15:15:32;2.17;;;2.00;;
12585;SDS011;6358;50.760;0.282;2023-05-07T15:17:58;2.00;;;1.90;;